sensor_id;sensor_type;location;lat;lon;timestamp;P1;durP1;ratioP1;P2;durP2;ratioP2
11911;SDS011;6016;41.928;25.556;2023-08-06T00:00:32;11.68;;;4.88;;
11911;SDS011;6016;41.928;25.556;2023-08-06T00:02:59;8.30;;;4.45;;
11911;SDS011;6016;41.928;25.556;2023-08-06T00:05:25;8.52;;;5.07;;
11911;SDS011;6016;41.928;25.556;2023-08-06T00:07:52;7.18;;;5.15;;
11911;SDS011;6016;41.928;25.556;2023-08-06T00:10:19;9.10;;;5.00;;
11911;SDS011;6016;41.928;25.556;2023-08-06T00:12:46;5.60;;;4.47;;
11911;SDS011;6016;41.928;25.556;2023-08-06T00:15:15;7.43;;;4.75;;
11911;SDS011;6016;41.928;25.556;2023-08-06T00:17:41;9.35;;;4.72;;
11911;SDS011;6016;41.928;25.556;2023-08-06T00:20:08;6.95;;;4.63;;
11911;SDS011;6016;41.928;25.556;2023-08-06T00:22:36;8.40;;;4.72;;
11911;SDS011;6016;41.928;25.556;2023-08-06T00:25:04;7.82;;;4.72;;
11911;SDS011;6016;41.928;25.556;2023-08-06T00:27:32;7.53;;;5.05;;
11911;SDS011;6016;41.928;25.556;2023-08-06T00:29:59;9.20;;;5.07;;
11911;SDS011;6016;41.928;25.556;2023-08-06T00:32:27;8.27;;;5.28;;
11911;SDS011;6016;41.928;25.556;2023-08-06T00:34:54;8.68;;;5.50;;
11911;SDS011;6016;41.928;25.556;2023-08-06T00:37:20;8.50;;;4.75;;
11911;SDS011;6016;41.928;25.556;2023-08-06T00:39:47;6.57;;;5.00;;
11911;SDS011;6016;41.928;25.556;2023-08-06T00:42:14;10.05;;;4.97;;
11911;SDS011;6016;41.928;25.556;2023-08-06T00:44:42;6.85;;;4.82;;
11911;SDS011;6016;41.928;25.556;2023-08-06T00:47:09;11.93;;;5.60;;
11911;SDS011;6016;41.928;25.556;2023-08-06T00:49:37;8.25;;;4.97;;
11911;SDS011;6016;41.928;25.556;2023-08-06T00:52:05;9.48;;;4.88;;
11911;SDS011;6016;41.928;25.556;2023-08-06T00:54:33;10.70;;;5.80;;
11911;SDS011;6016;41.928;25.556;2023-08-06T00:57:01;10.82;;;6.07;;
11911;SDS011;6016;41.928;25.556;2023-08-06T00:59:29;10.15;;;5.60;;
11911;SDS011;6016;41.928;25.556;2023-08-06T01:01:57;6.65;;;4.85;;
11911;SDS011;6016;41.928;25.556;2023-08-06T01:04:24;9.23;;;5.10;;
11911;SDS011;6016;41.928;25.556;2023-08-06T01:06:55;7.95;;;5.43;;
11911;SDS011;6016;41.928;25.556;2023-08-06T01:09:34;12.00;;;5.82;;
11911;SDS011;6016;41.928;25.556;2023-08-06T01:12:06;9.82;;;5.78;;
11911;SDS011;6016;41.928;25.556;2023-08-06T01:14:44;7.88;;;4.97;;
11911;SDS011;6016;41.928;25.556;2023-08-06T01:17:16;7.72;;;5.35;;
11911;SDS011;6016;41.928;25.556;2023-08-06T01:19:43;11.07;;;6.07;;
11911;SDS011;6016;41.928;25.556;2023-08-06T01:22:11;12.93;;;6.80;;
11911;SDS011;6016;41.928;25.556;2023-08-06T01:24:38;8.85;;;5.40;;
11911;SDS011;6016;41.928;25.556;2023-08-06T01:27:08;9.02;;;5.63;;
11911;SDS011;6016;41.928;25.556;2023-08-06T01:29:39;10.40;;;5.38;;
11911;SDS011;6016;41.928;25.556;2023-08-06T01:32:10;8.30;;;5.28;;
11911;SDS011;6016;41.928;25.556;2023-08-06T01:34:38;12.73;;;5.50;;
11911;SDS011;6016;41.928;25.556;2023-08-06T01:37:07;10.45;;;5.63;;
11911;SDS011;6016;41.928;25.556;2023-08-06T01:39:36;9.35;;;5.88;;
11911;SDS011;6016;41.928;25.556;2023-08-06T01:42:03;7.22;;;5.47;;
11911;SDS011;6016;41.928;25.556;2023-08-06T01:44:30;9.38;;;5.93;;
11911;SDS011;6016;41.928;25.556;2023-08-06T01:46:57;10.15;;;5.75;;
11911;SDS011;6016;41.928;25.556;2023-08-06T01:49:24;12.30;;;6.05;;
11911;SDS011;6016;41.928;25.556;2023-08-06T01:51:51;11.10;;;6.07;;
11911;SDS011;6016;41.928;25.556;2023-08-06T01:54:18;12.18;;;6.13;;
11911;SDS011;6016;41.928;25.556;2023-08-06T01:56:46;11.38;;;5.63;;
11911;SDS011;6016;41.928;25.556;2023-08-06T01:59:12;11.23;;;6.57;;
11911;SDS011;6016;41.928;25.556;2023-08-06T02:01:39;9.77;;;5.25;;
11911;SDS011;6016;41.928;25.556;2023-08-06T02:04:06;10.63;;;6.35;;
11911;SDS011;6016;41.928;25.556;2023-08-06T02:06:33;8.82;;;5.97;;
11911;SDS011;6016;41.928;25.556;2023-08-06T02:08:59;11.18;;;6.53;;
11911;SDS011;6016;41.928;25.556;2023-08-06T02:11:26;14.82;;;6.63;;
11911;SDS011;6016;41.928;25.556;2023-08-06T02:13:54;13.73;;;6.38;;
11911;SDS011;6016;41.928;25.556;2023-08-06T02:16:21;8.65;;;6.03;;
11911;SDS011;6016;41.928;25.556;2023-08-06T02:18:48;12.25;;;6.78;;
11911;SDS011;6016;41.928;25.556;2023-08-06T02:21:15;7.53;;;5.75;;
11911;SDS011;6016;41.928;25.556;2023-08-06T02:23:42;9.60;;;5.82;;
11911;SDS011;6016;41.928;25.556;2023-08-06T02:26:07;10.00;;;5.75;;
11911;SDS011;6016;41.928;25.556;2023-08-06T02:28:34;12.10;;;6.03;;
11911;SDS011;6016;41.928;25.556;2023-08-06T02:31:02;7.85;;;5.07;;
11911;SDS011;6016;41.928;25.556;2023-08-06T02:33:29;16.88;;;6.85;;
11911;SDS011;6016;41.928;25.556;2023-08-06T02:35:59;9.35;;;5.72;;
11911;SDS011;6016;41.928;25.556;2023-08-06T02:40:55;8.80;;;6.05;;
11911;SDS011;6016;41.928;25.556;2023-08-06T02:43:22;8.68;;;5.60;;
11911;SDS011;6016;41.928;25.556;2023-08-06T02:45:49;9.40;;;6.25;;
11911;SDS011;6016;41.928;25.556;2023-08-06T02:48:17;12.13;;;6.15;;
11911;SDS011;6016;41.928;25.556;2023-08-06T02:50:44;9.95;;;6.18;;
11911;SDS011;6016;41.928;25.556;2023-08-06T02:53:11;9.00;;;6.28;;
11911;SDS011;6016;41.928;25.556;2023-08-06T02:55:37;12.25;;;6.50;;
11911;SDS011;6016;41.928;25.556;2023-08-06T02:58:04;12.35;;;6.85;;
11911;SDS011;6016;41.928;25.556;2023-08-06T03:00:31;10.32;;;6.30;;
11911;SDS011;6016;41.928;25.556;2023-08-06T03:02:58;9.40;;;6.15;;
11911;SDS011;6016;41.928;25.556;2023-08-06T03:05:26;10.75;;;7.00;;
11911;SDS011;6016;41.928;25.556;2023-08-06T03:07:53;12.30;;;6.07;;
11911;SDS011;6016;41.928;25.556;2023-08-06T03:10:19;8.82;;;6.82;;
11911;SDS011;6016;41.928;25.556;2023-08-06T03:12:46;11.77;;;6.50;;
11911;SDS011;6016;41.928;25.556;2023-08-06T03:15:13;8.80;;;6.15;;
11911;SDS011;6016;41.928;25.556;2023-08-06T03:17:40;12.75;;;7.28;;
11911;SDS011;6016;41.928;25.556;2023-08-06T03:20:07;10.90;;;6.88;;
11911;SDS011;6016;41.928;25.556;2023-08-06T03:22:35;13.43;;;8.50;;
11911;SDS011;6016;41.928;25.556;2023-08-06T03:25:03;13.68;;;8.25;;
11911;SDS011;6016;41.928;25.556;2023-08-06T03:27:30;18.70;;;9.45;;
11911;SDS011;6016;41.928;25.556;2023-08-06T03:29:57;17.90;;;8.48;;
11911;SDS011;6016;41.928;25.556;2023-08-06T03:32:26;12.70;;;7.47;;
11911;SDS011;6016;41.928;25.556;2023-08-06T03:34:52;9.95;;;6.75;;
11911;SDS011;6016;41.928;25.556;2023-08-06T03:37:19;13.88;;;6.97;;
11911;SDS011;6016;41.928;25.556;2023-08-06T03:39:47;12.02;;;7.43;;
11911;SDS011;6016;41.928;25.556;2023-08-06T03:42:14;13.15;;;6.90;;
11911;SDS011;6016;41.928;25.556;2023-08-06T03:44:41;12.55;;;8.10;;
11911;SDS011;6016;41.928;25.556;2023-08-06T03:47:08;10.18;;;6.72;;
11911;SDS011;6016;41.928;25.556;2023-08-06T03:49:35;11.73;;;7.93;;
11911;SDS011;6016;41.928;25.556;2023-08-06T03:52:01;12.68;;;7.75;;
11911;SDS011;6016;41.928;25.556;2023-08-06T03:54:28;14.07;;;8.70;;
11911;SDS011;6016;41.928;25.556;2023-08-06T03:56:57;12.30;;;6.78;;
11911;SDS011;6016;41.928;25.556;2023-08-06T03:59:24;12.32;;;6.90;;
11911;SDS011;6016;41.928;25.556;2023-08-06T04:01:51;8.77;;;6.25;;
11911;SDS011;6016;41.928;25.556;2023-08-06T04:04:17;12.07;;;7.38;;
11911;SDS011;6016;41.928;25.556;2023-08-06T04:06:44;13.80;;;8.35;;
11911;SDS011;6016;41.928;25.556;2023-08-06T04:09:11;9.63;;;7.05;;
11911;SDS011;6016;41.928;25.556;2023-08-06T04:11:38;12.35;;;7.97;;
11911;SDS011;6016;41.928;25.556;2023-08-06T04:14:06;11.32;;;7.38;;
11911;SDS011;6016;41.928;25.556;2023-08-06T04:16:33;11.43;;;6.93;;
11911;SDS011;6016;41.928;25.556;2023-08-06T04:19:00;16.80;;;9.20;;
11911;SDS011;6016;41.928;25.556;2023-08-06T04:21:27;12.38;;;7.63;;
11911;SDS011;6016;41.928;25.556;2023-08-06T04:23:53;14.63;;;9.48;;
11911;SDS011;6016;41.928;25.556;2023-08-06T04:26:20;14.10;;;8.85;;
11911;SDS011;6016;41.928;25.556;2023-08-06T04:28:47;18.55;;;10.10;;
11911;SDS011;6016;41.928;25.556;2023-08-06T04:31:15;11.30;;;7.80;;
11911;SDS011;6016;41.928;25.556;2023-08-06T04:33:42;14.98;;;8.45;;
11911;SDS011;6016;41.928;25.556;2023-08-06T04:36:09;10.25;;;7.32;;
11911;SDS011;6016;41.928;25.556;2023-08-06T04:38:35;12.32;;;7.70;;
11911;SDS011;6016;41.928;25.556;2023-08-06T04:41:03;12.88;;;8.60;;
11911;SDS011;6016;41.928;25.556;2023-08-06T04:43:30;10.60;;;7.00;;
11911;SDS011;6016;41.928;25.556;2023-08-06T04:45:57;14.07;;;9.18;;
11911;SDS011;6016;41.928;25.556;2023-08-06T04:48:25;9.60;;;6.97;;
11911;SDS011;6016;41.928;25.556;2023-08-06T04:50:52;12.38;;;8.73;;
11911;SDS011;6016;41.928;25.556;2023-08-06T04:53:19;14.38;;;7.85;;
11911;SDS011;6016;41.928;25.556;2023-08-06T04:55:46;11.77;;;9.00;;
11911;SDS011;6016;41.928;25.556;2023-08-06T04:58:13;14.13;;;8.95;;
11911;SDS011;6016;41.928;25.556;2023-08-06T05:00:40;12.93;;;9.23;;
11911;SDS011;6016;41.928;25.556;2023-08-06T05:03:07;14.77;;;9.40;;
11911;SDS011;6016;41.928;25.556;2023-08-06T05:05:35;13.55;;;8.68;;
11911;SDS011;6016;41.928;25.556;2023-08-06T05:08:02;14.10;;;10.25;;
11911;SDS011;6016;41.928;25.556;2023-08-06T05:10:29;13.35;;;8.35;;
11911;SDS011;6016;41.928;25.556;2023-08-06T05:12:56;19.95;;;10.60;;
11911;SDS011;6016;41.928;25.556;2023-08-06T05:15:22;15.73;;;10.00;;
11911;SDS011;6016;41.928;25.556;2023-08-06T05:17:50;14.95;;;10.38;;
11911;SDS011;6016;41.928;25.556;2023-08-06T05:20:17;16.30;;;10.63;;
11911;SDS011;6016;41.928;25.556;2023-08-06T05:22:45;13.80;;;8.95;;
11911;SDS011;6016;41.928;25.556;2023-08-06T05:25:13;14.95;;;10.00;;
11911;SDS011;6016;41.928;25.556;2023-08-06T05:27:41;13.23;;;9.25;;
11911;SDS011;6016;41.928;25.556;2023-08-06T05:30:08;12.13;;;8.45;;
11911;SDS011;6016;41.928;25.556;2023-08-06T05:32:35;15.85;;;10.77;;
11911;SDS011;6016;41.928;25.556;2023-08-06T05:35:02;16.08;;;11.27;;
11911;SDS011;6016;41.928;25.556;2023-08-06T05:37:29;16.05;;;10.93;;
11911;SDS011;6016;41.928;25.556;2023-08-06T05:39:57;14.88;;;9.82;;
11911;SDS011;6016;41.928;25.556;2023-08-06T05:42:24;9.98;;;8.25;;
11911;SDS011;6016;41.928;25.556;2023-08-06T05:44:51;16.83;;;11.23;;
11911;SDS011;6016;41.928;25.556;2023-08-06T05:47:18;14.13;;;9.50;;
11911;SDS011;6016;41.928;25.556;2023-08-06T05:49:45;14.77;;;10.23;;
11911;SDS011;6016;41.928;25.556;2023-08-06T05:52:12;14.20;;;10.13;;
11911;SDS011;6016;41.928;25.556;2023-08-06T05:54:39;17.13;;;10.13;;
11911;SDS011;6016;41.928;25.556;2023-08-06T05:57:08;16.92;;;11.02;;
11911;SDS011;6016;41.928;25.556;2023-08-06T05:59:35;16.85;;;11.32;;
11911;SDS011;6016;41.928;25.556;2023-08-06T06:02:01;12.88;;;8.75;;
11911;SDS011;6016;41.928;25.556;2023-08-06T06:04:28;47.95;;;12.48;;
11911;SDS011;6016;41.928;25.556;2023-08-06T06:06:55;13.65;;;9.68;;
11911;SDS011;6016;41.928;25.556;2023-08-06T06:09:22;12.85;;;8.80;;
11911;SDS011;6016;41.928;25.556;2023-08-06T06:11:49;15.82;;;9.77;;
11911;SDS011;6016;41.928;25.556;2023-08-06T06:14:17;17.40;;;11.68;;
11911;SDS011;6016;41.928;25.556;2023-08-06T06:16:44;13.38;;;9.95;;
11911;SDS011;6016;41.928;25.556;2023-08-06T06:19:11;16.13;;;10.27;;
11911;SDS011;6016;41.928;25.556;2023-08-06T06:21:38;19.42;;;11.45;;
11911;SDS011;6016;41.928;25.556;2023-08-06T06:24:06;36.35;;;11.75;;
11911;SDS011;6016;41.928;25.556;2023-08-06T06:26:33;15.88;;;10.75;;
11911;SDS011;6016;41.928;25.556;2023-08-06T06:29:00;15.85;;;10.35;;
11911;SDS011;6016;41.928;25.556;2023-08-06T06:31:28;20.40;;;10.63;;
11911;SDS011;6016;41.928;25.556;2023-08-06T06:33:55;17.70;;;9.68;;
11911;SDS011;6016;41.928;25.556;2023-08-06T06:36:23;12.82;;;9.20;;
11911;SDS011;6016;41.928;25.556;2023-08-06T06:38:50;15.65;;;11.32;;
11911;SDS011;6016;41.928;25.556;2023-08-06T06:41:17;17.05;;;10.38;;
11911;SDS011;6016;41.928;25.556;2023-08-06T06:43:44;13.27;;;9.32;;
11911;SDS011;6016;41.928;25.556;2023-08-06T06:46:11;12.57;;;9.35;;
11911;SDS011;6016;41.928;25.556;2023-08-06T06:48:39;16.50;;;10.02;;
11911;SDS011;6016;41.928;25.556;2023-08-06T06:51:06;18.48;;;10.45;;
11911;SDS011;6016;41.928;25.556;2023-08-06T06:53:32;16.88;;;10.25;;
11911;SDS011;6016;41.928;25.556;2023-08-06T06:56:01;17.33;;;11.80;;
11911;SDS011;6016;41.928;25.556;2023-08-06T06:58:29;11.88;;;9.57;;
11911;SDS011;6016;41.928;25.556;2023-08-06T07:00:56;15.32;;;10.95;;
11911;SDS011;6016;41.928;25.556;2023-08-06T07:03:23;16.98;;;10.93;;
11911;SDS011;6016;41.928;25.556;2023-08-06T07:05:51;15.68;;;10.52;;
11911;SDS011;6016;41.928;25.556;2023-08-06T07:08:18;14.07;;;9.50;;
11911;SDS011;6016;41.928;25.556;2023-08-06T07:10:45;15.52;;;10.82;;
11911;SDS011;6016;41.928;25.556;2023-08-06T07:13:11;16.70;;;10.82;;
11911;SDS011;6016;41.928;25.556;2023-08-06T07:15:38;28.02;;;13.18;;
11911;SDS011;6016;41.928;25.556;2023-08-06T07:18:05;21.17;;;12.20;;
11911;SDS011;6016;41.928;25.556;2023-08-06T07:20:32;19.33;;;9.70;;
11911;SDS011;6016;41.928;25.556;2023-08-06T07:23:00;16.08;;;10.50;;
11911;SDS011;6016;41.928;25.556;2023-08-06T07:25:27;15.80;;;5.82;;
11911;SDS011;6016;41.928;25.556;2023-08-06T07:27:54;9.90;;;5.78;;
11911;SDS011;6016;41.928;25.556;2023-08-06T07:30:21;13.95;;;6.70;;
11911;SDS011;6016;41.928;25.556;2023-08-06T07:32:48;9.20;;;4.05;;
11911;SDS011;6016;41.928;25.556;2023-08-06T07:35:15;8.75;;;4.45;;
11911;SDS011;6016;41.928;25.556;2023-08-06T07:37:42;7.43;;;3.63;;
11911;SDS011;6016;41.928;25.556;2023-08-06T07:40:10;6.45;;;3.30;;
11911;SDS011;6016;41.928;25.556;2023-08-06T07:42:38;10.25;;;3.75;;
11911;SDS011;6016;41.928;25.556;2023-08-06T07:45:05;4.40;;;2.55;;
11911;SDS011;6016;41.928;25.556;2023-08-06T07:47:33;7.07;;;3.10;;
11911;SDS011;6016;41.928;25.556;2023-08-06T07:50:00;5.13;;;2.67;;
11911;SDS011;6016;41.928;25.556;2023-08-06T07:52:26;5.32;;;2.38;;
11911;SDS011;6016;41.928;25.556;2023-08-06T07:54:53;5.35;;;2.60;;
11911;SDS011;6016;41.928;25.556;2023-08-06T07:57:21;6.32;;;2.55;;
11911;SDS011;6016;41.928;25.556;2023-08-06T07:59:48;4.97;;;2.28;;
11911;SDS011;6016;41.928;25.556;2023-08-06T08:02:15;3.38;;;2.53;;
11911;SDS011;6016;41.928;25.556;2023-08-06T08:04:42;4.22;;;2.25;;
11911;SDS011;6016;41.928;25.556;2023-08-06T08:07:09;3.65;;;2.00;;
11911;SDS011;6016;41.928;25.556;2023-08-06T08:09:36;3.10;;;1.90;;
11911;SDS011;6016;41.928;25.556;2023-08-06T08:12:03;2.85;;;1.80;;
11911;SDS011;6016;41.928;25.556;2023-08-06T08:14:32;3.80;;;2.20;;
11911;SDS011;6016;41.928;25.556;2023-08-06T08:17:01;2.63;;;1.70;;
11911;SDS011;6016;41.928;25.556;2023-08-06T08:19:28;3.10;;;1.80;;
11911;SDS011;6016;41.928;25.556;2023-08-06T08:21:55;3.35;;;1.98;;
11911;SDS011;6016;41.928;25.556;2023-08-06T08:24:22;3.20;;;1.90;;
11911;SDS011;6016;41.928;25.556;2023-08-06T08:26:49;4.03;;;2.30;;
11911;SDS011;6016;41.928;25.556;2023-08-06T08:29:16;2.35;;;1.95;;
11911;SDS011;6016;41.928;25.556;2023-08-06T08:31:44;4.43;;;2.28;;
11911;SDS011;6016;41.928;25.556;2023-08-06T08:34:14;2.28;;;1.75;;
11911;SDS011;6016;41.928;25.556;2023-08-06T08:36:41;3.25;;;1.70;;
11911;SDS011;6016;41.928;25.556;2023-08-06T08:39:08;3.60;;;2.13;;
11911;SDS011;6016;41.928;25.556;2023-08-06T08:41:36;2.80;;;1.80;;
11911;SDS011;6016;41.928;25.556;2023-08-06T08:44:03;4.03;;;2.10;;
11911;SDS011;6016;41.928;25.556;2023-08-06T08:46:33;3.03;;;1.83;;
11911;SDS011;6016;41.928;25.556;2023-08-06T08:49:03;1.92;;;1.58;;
11911;SDS011;6016;41.928;25.556;2023-08-06T08:51:30;3.30;;;1.92;;
11911;SDS011;6016;41.928;25.556;2023-08-06T08:53:57;2.28;;;1.73;;
11911;SDS011;6016;41.928;25.556;2023-08-06T08:56:24;3.63;;;2.10;;
11911;SDS011;6016;41.928;25.556;2023-08-06T08:58:51;3.33;;;2.05;;
11911;SDS011;6016;41.928;25.556;2023-08-06T09:01:20;2.42;;;1.80;;
11911;SDS011;6016;41.928;25.556;2023-08-06T09:03:48;3.20;;;2.17;;
11911;SDS011;6016;41.928;25.556;2023-08-06T09:06:17;4.15;;;2.40;;
11911;SDS011;6016;41.928;25.556;2023-08-06T09:08:47;6.28;;;3.70;;
11911;SDS011;6016;41.928;25.556;2023-08-06T09:11:19;4.95;;;2.95;;
11911;SDS011;6016;41.928;25.556;2023-08-06T09:13:47;6.30;;;3.90;;
11911;SDS011;6016;41.928;25.556;2023-08-06T09:16:14;7.63;;;4.85;;
11911;SDS011;6016;41.928;25.556;2023-08-06T09:18:41;10.80;;;6.78;;
11911;SDS011;6016;41.928;25.556;2023-08-06T09:21:12;17.55;;;11.90;;
11911;SDS011;6016;41.928;25.556;2023-08-06T09:23:42;20.83;;;13.77;;
11911;SDS011;6016;41.928;25.556;2023-08-06T09:26:11;20.75;;;15.00;;
11911;SDS011;6016;41.928;25.556;2023-08-06T09:28:39;18.88;;;13.50;;
11911;SDS011;6016;41.928;25.556;2023-08-06T09:31:08;22.02;;;15.73;;
11911;SDS011;6016;41.928;25.556;2023-08-06T09:33:35;24.15;;;17.52;;
11911;SDS011;6016;41.928;25.556;2023-08-06T09:36:07;22.25;;;16.98;;
11911;SDS011;6016;41.928;25.556;2023-08-06T09:38:37;25.27;;;19.33;;
11911;SDS011;6016;41.928;25.556;2023-08-06T09:41:06;25.48;;;19.17;;
11911;SDS011;6016;41.928;25.556;2023-08-06T09:43:39;26.23;;;19.42;;
11911;SDS011;6016;41.928;25.556;2023-08-06T09:46:10;27.35;;;19.98;;
11911;SDS011;6016;41.928;25.556;2023-08-06T09:48:39;29.52;;;19.85;;
11911;SDS011;6016;41.928;25.556;2023-08-06T09:51:07;26.00;;;18.88;;
11911;SDS011;6016;41.928;25.556;2023-08-06T09:53:35;26.42;;;19.08;;
11911;SDS011;6016;41.928;25.556;2023-08-06T09:56:04;23.55;;;18.17;;
11911;SDS011;6016;41.928;25.556;2023-08-06T09:58:32;24.98;;;17.45;;
11911;SDS011;6016;41.928;25.556;2023-08-06T10:00:59;22.48;;;17.17;;
11911;SDS011;6016;41.928;25.556;2023-08-06T10:03:28;21.30;;;17.17;;
11911;SDS011;6016;41.928;25.556;2023-08-06T10:05:56;23.10;;;17.52;;
11911;SDS011;6016;41.928;25.556;2023-08-06T10:08:23;21.02;;;17.23;;
11911;SDS011;6016;41.928;25.556;2023-08-06T10:10:49;21.83;;;17.08;;
11911;SDS011;6016;41.928;25.556;2023-08-06T10:13:17;21.25;;;17.05;;
11911;SDS011;6016;41.928;25.556;2023-08-06T10:15:48;22.08;;;16.88;;
11911;SDS011;6016;41.928;25.556;2023-08-06T10:18:16;22.70;;;16.45;;
11911;SDS011;6016;41.928;25.556;2023-08-06T10:20:47;22.48;;;16.17;;
11911;SDS011;6016;41.928;25.556;2023-08-06T10:23:14;19.73;;;15.02;;
11911;SDS011;6016;41.928;25.556;2023-08-06T10:25:42;21.48;;;15.98;;
11911;SDS011;6016;41.928;25.556;2023-08-06T10:28:09;21.52;;;14.75;;
11911;SDS011;6016;41.928;25.556;2023-08-06T10:30:41;19.73;;;13.50;;
11911;SDS011;6016;41.928;25.556;2023-08-06T10:33:10;14.80;;;12.03;;
11911;SDS011;6016;41.928;25.556;2023-08-06T10:35:38;12.73;;;10.10;;
11911;SDS011;6016;41.928;25.556;2023-08-06T10:38:09;12.02;;;9.40;;
11911;SDS011;6016;41.928;25.556;2023-08-06T10:40:37;13.68;;;10.15;;
11911;SDS011;6016;41.928;25.556;2023-08-06T10:43:06;9.45;;;7.68;;
11911;SDS011;6016;41.928;25.556;2023-08-06T10:45:36;6.82;;;5.57;;
11911;SDS011;6016;41.928;25.556;2023-08-06T10:48:04;6.90;;;5.97;;
11911;SDS011;6016;41.928;25.556;2023-08-06T10:50:32;9.63;;;5.57;;
11911;SDS011;6016;41.928;25.556;2023-08-06T10:53:03;9.48;;;6.60;;
11911;SDS011;6016;41.928;25.556;2023-08-06T10:55:31;7.63;;;6.38;;
11911;SDS011;6016;41.928;25.556;2023-08-06T10:57:58;12.32;;;10.20;;
11911;SDS011;6016;41.928;25.556;2023-08-06T11:00:25;13.13;;;10.40;;
11911;SDS011;6016;41.928;25.556;2023-08-06T11:02:52;14.73;;;10.70;;
11911;SDS011;6016;41.928;25.556;2023-08-06T11:05:20;15.07;;;11.52;;
11911;SDS011;6016;41.928;25.556;2023-08-06T11:07:48;16.40;;;11.50;;
11911;SDS011;6016;41.928;25.556;2023-08-06T11:10:16;15.35;;;11.07;;
11911;SDS011;6016;41.928;25.556;2023-08-06T11:12:43;17.00;;;10.98;;
11911;SDS011;6016;41.928;25.556;2023-08-06T11:15:10;15.15;;;9.88;;
11911;SDS011;6016;41.928;25.556;2023-08-06T11:17:37;11.82;;;8.52;;
11911;SDS011;6016;41.928;25.556;2023-08-06T11:20:06;11.45;;;8.40;;
11911;SDS011;6016;41.928;25.556;2023-08-06T11:22:34;11.20;;;8.75;;
11911;SDS011;6016;41.928;25.556;2023-08-06T11:25:04;12.43;;;8.18;;
11911;SDS011;6016;41.928;25.556;2023-08-06T11:27:32;8.10;;;6.20;;
11911;SDS011;6016;41.928;25.556;2023-08-06T11:29:59;8.00;;;5.60;;
11911;SDS011;6016;41.928;25.556;2023-08-06T11:32:25;7.00;;;5.32;;
11911;SDS011;6016;41.928;25.556;2023-08-06T11:34:53;5.95;;;4.75;;
11911;SDS011;6016;41.928;25.556;2023-08-06T11:37:21;7.68;;;5.85;;
11911;SDS011;6016;41.928;25.556;2023-08-06T11:39:50;9.77;;;6.78;;
11911;SDS011;6016;41.928;25.556;2023-08-06T11:42:19;6.22;;;5.22;;
11911;SDS011;6016;41.928;25.556;2023-08-06T11:44:45;5.72;;;4.95;;
11911;SDS011;6016;41.928;25.556;2023-08-06T11:47:13;6.88;;;5.95;;
11911;SDS011;6016;41.928;25.556;2023-08-06T11:49:42;7.32;;;4.47;;
11911;SDS011;6016;41.928;25.556;2023-08-06T11:52:13;7.35;;;5.20;;
11911;SDS011;6016;41.928;25.556;2023-08-06T11:54:44;7.30;;;5.45;;
11911;SDS011;6016;41.928;25.556;2023-08-06T11:57:11;7.03;;;5.60;;
11911;SDS011;6016;41.928;25.556;2023-08-06T11:59:40;8.18;;;5.90;;
11911;SDS011;6016;41.928;25.556;2023-08-06T12:02:08;7.70;;;5.75;;
11911;SDS011;6016;41.928;25.556;2023-08-06T12:07:26;7.70;;;5.35;;
11911;SDS011;6016;41.928;25.556;2023-08-06T12:09:54;6.03;;;4.90;;
11911;SDS011;6016;41.928;25.556;2023-08-06T12:12:21;8.20;;;5.15;;
11911;SDS011;6016;41.928;25.556;2023-08-06T12:14:49;6.10;;;5.05;;
11911;SDS011;6016;41.928;25.556;2023-08-06T12:17:16;5.97;;;5.30;;
11911;SDS011;6016;41.928;25.556;2023-08-06T12:19:44;6.28;;;5.18;;
11911;SDS011;6016;41.928;25.556;2023-08-06T12:22:12;6.20;;;5.00;;
11911;SDS011;6016;41.928;25.556;2023-08-06T12:24:39;7.53;;;4.88;;
11911;SDS011;6016;41.928;25.556;2023-08-06T12:27:06;6.00;;;5.05;;
11911;SDS011;6016;41.928;25.556;2023-08-06T12:29:33;5.85;;;5.00;;
11911;SDS011;6016;41.928;25.556;2023-08-06T12:32:01;6.10;;;5.00;;
11911;SDS011;6016;41.928;25.556;2023-08-06T12:34:30;6.53;;;5.15;;
11911;SDS011;6016;41.928;25.556;2023-08-06T12:36:56;6.78;;;5.50;;
11911;SDS011;6016;41.928;25.556;2023-08-06T12:39:23;7.35;;;5.38;;
11911;SDS011;6016;41.928;25.556;2023-08-06T12:41:50;6.22;;;5.07;;
11911;SDS011;6016;41.928;25.556;2023-08-06T12:44:17;6.25;;;5.13;;
11911;SDS011;6016;41.928;25.556;2023-08-06T12:46:43;5.97;;;5.07;;
11911;SDS011;6016;41.928;25.556;2023-08-06T12:49:12;6.40;;;5.55;;
11911;SDS011;6016;41.928;25.556;2023-08-06T12:51:38;8.43;;;5.32;;
11911;SDS011;6016;41.928;25.556;2023-08-06T12:54:05;9.63;;;5.20;;
11911;SDS011;6016;41.928;25.556;2023-08-06T12:56:32;7.10;;;5.13;;
11911;SDS011;6016;41.928;25.556;2023-08-06T12:58:59;8.07;;;5.40;;
11911;SDS011;6016;41.928;25.556;2023-08-06T13:01:25;6.28;;;5.20;;
11911;SDS011;6016;41.928;25.556;2023-08-06T13:03:52;9.00;;;5.72;;
11911;SDS011;6016;41.928;25.556;2023-08-06T13:06:20;13.65;;;6.65;;
11911;SDS011;6016;41.928;25.556;2023-08-06T13:08:47;14.75;;;6.70;;
11911;SDS011;6016;41.928;25.556;2023-08-06T13:11:14;21.13;;;8.63;;
11911;SDS011;6016;41.928;25.556;2023-08-06T13:13:41;11.07;;;6.75;;
11911;SDS011;6016;41.928;25.556;2023-08-06T13:16:07;12.20;;;6.63;;
11911;SDS011;6016;41.928;25.556;2023-08-06T13:18:34;10.25;;;7.55;;
11911;SDS011;6016;41.928;25.556;2023-08-06T13:21:01;9.57;;;6.38;;
11911;SDS011;6016;41.928;25.556;2023-08-06T13:23:29;12.38;;;6.75;;
11911;SDS011;6016;41.928;25.556;2023-08-06T13:25:56;9.77;;;5.97;;
11911;SDS011;6016;41.928;25.556;2023-08-06T13:28:23;9.77;;;6.30;;
11911;SDS011;6016;41.928;25.556;2023-08-06T13:30:50;10.90;;;6.43;;
11911;SDS011;6016;41.928;25.556;2023-08-06T13:33:17;10.65;;;7.22;;
11911;SDS011;6016;41.928;25.556;2023-08-06T13:35:44;13.93;;;9.48;;
11911;SDS011;6016;41.928;25.556;2023-08-06T13:38:10;12.73;;;8.18;;
11911;SDS011;6016;41.928;25.556;2023-08-06T13:40:39;13.68;;;7.25;;
11911;SDS011;6016;41.928;25.556;2023-08-06T13:43:06;11.68;;;8.18;;
11911;SDS011;6016;41.928;25.556;2023-08-06T13:45:33;10.80;;;6.90;;
11911;SDS011;6016;41.928;25.556;2023-08-06T13:48:00;12.48;;;7.38;;
11911;SDS011;6016;41.928;25.556;2023-08-06T13:50:28;9.48;;;6.65;;
11911;SDS011;6016;41.928;25.556;2023-08-06T13:52:55;11.40;;;7.45;;
11911;SDS011;6016;41.928;25.556;2023-08-06T13:55:22;10.00;;;6.88;;
11911;SDS011;6016;41.928;25.556;2023-08-06T13:57:50;11.43;;;7.57;;
11911;SDS011;6016;41.928;25.556;2023-08-06T14:00:17;12.32;;;8.40;;
11911;SDS011;6016;41.928;25.556;2023-08-06T14:02:44;9.82;;;7.50;;
11911;SDS011;6016;41.928;25.556;2023-08-06T14:05:11;11.35;;;7.60;;
11911;SDS011;6016;41.928;25.556;2023-08-06T14:07:39;11.25;;;7.68;;
11911;SDS011;6016;41.928;25.556;2023-08-06T14:10:06;12.38;;;8.52;;
11911;SDS011;6016;41.928;25.556;2023-08-06T14:12:34;12.73;;;7.53;;
11911;SDS011;6016;41.928;25.556;2023-08-06T14:15:03;10.65;;;8.32;;
11911;SDS011;6016;41.928;25.556;2023-08-06T14:17:30;9.63;;;7.50;;
11911;SDS011;6016;41.928;25.556;2023-08-06T14:19:57;13.48;;;7.53;;
11911;SDS011;6016;41.928;25.556;2023-08-06T14:22:24;9.50;;;7.07;;
11911;SDS011;6016;41.928;25.556;2023-08-06T14:24:51;8.70;;;6.75;;
11911;SDS011;6016;41.928;25.556;2023-08-06T14:27:18;9.18;;;7.00;;
11911;SDS011;6016;41.928;25.556;2023-08-06T14:29:45;10.10;;;7.03;;
11911;SDS011;6016;41.928;25.556;2023-08-06T14:32:13;10.85;;;7.30;;
11911;SDS011;6016;41.928;25.556;2023-08-06T14:34:42;8.88;;;6.47;;
11911;SDS011;6016;41.928;25.556;2023-08-06T14:37:10;11.80;;;8.25;;
11911;SDS011;6016;41.928;25.556;2023-08-06T14:39:37;8.20;;;6.38;;
11911;SDS011;6016;41.928;25.556;2023-08-06T14:42:04;10.57;;;6.70;;
11911;SDS011;6016;41.928;25.556;2023-08-06T14:44:31;10.50;;;6.75;;